createdAt,value
2022-12-25T00:01:48.411Z,100783.14
2022-12-25T00:04:00.322Z,100777.13
2022-12-25T00:06:12.504Z,100775.88
2022-12-25T00:08:24.185Z,100779.12
2022-12-25T00:10:41.357Z,100781.77
2022-12-25T00:12:57.290Z,100779.95
2022-12-25T00:15:10.004Z,100780.69
2022-12-25T00:17:22.299Z,100789.59
2022-12-25T00:19:34.294Z,100788.91
2022-12-25T00:21:45.881Z,100793.06
2022-12-25T00:23:59.205Z,100787.89
2022-12-25T00:26:13.443Z,100783.59
2022-12-25T00:28:26.015Z,100782.02
2022-12-25T00:30:41.164Z,100783.51
2022-12-25T00:32:53.339Z,100787.35
2022-12-25T00:35:05.850Z,100786.40
2022-12-25T00:37:17.559Z,100784.23
2022-12-25T00:39:29.516Z,100783.55
2022-12-25T00:42:01.790Z,100784.14
2022-12-25T00:44:14.500Z,100789.05
2022-12-25T00:46:26.516Z,100789.58
2022-12-25T00:48:39.517Z,100800.71
2022-12-25T00:50:59.600Z,100803.59
2022-12-25T00:53:11.391Z,100809.48
2022-12-25T00:55:23.587Z,100816.13
2022-12-25T00:57:35.620Z,100818.42
2022-12-25T00:59:47.575Z,100822.52
2022-12-25T01:02:22.744Z,100821.47
2022-12-25T01:04:35.429Z,100828.38
2022-12-25T01:06:47.017Z,100826.45
2022-12-25T01:09:18.048Z,100823.25
2022-12-25T01:11:30.457Z,100824.73
2022-12-25T01:13:41.940Z,100820.45
2022-12-25T01:15:54.737Z,100827.54
2022-12-25T01:18:08.034Z,100832.88
2022-12-25T01:20:21.504Z,100832.11
2022-12-25T01:22:33.806Z,100829.52
2022-12-25T01:24:45.524Z,100827.60
2022-12-25T01:26:57.702Z,100830.87
2022-12-25T01:29:09.589Z,100828.41
2022-12-25T01:31:24.178Z,100828.55
2022-12-25T01:33:36.140Z,100829.70
2022-12-25T01:35:47.821Z,100832.30
2022-12-25T01:37:59.509Z,100834.35
2022-12-25T01:40:11.424Z,100836.89
2022-12-25T01:42:24.215Z,100837.14
2022-12-25T01:44:36.011Z,100839.37
2022-12-25T01:46:47.799Z,100837.77
2022-12-25T01:49:16.791Z,100840.95
2022-12-25T01:51:44.450Z,100838.07
2022-12-25T01:53:59.821Z,100840.16
2022-12-25T01:56:12.228Z,100841.71
2022-12-25T01:58:24.428Z,100849.38
2022-12-25T02:00:36.494Z,100859.98
2022-12-25T02:02:49.229Z,100865.36
2022-12-25T02:05:08.612Z,100867.33
2022-12-25T02:07:24.693Z,100865.16
2022-12-25T02:09:37.940Z,100860.95
2022-12-25T02:11:59.040Z,100861.57
2022-12-25T02:14:12.457Z,100859.88
2022-12-25T02:16:30.132Z,100859.55
2022-12-25T02:18:51.935Z,100865.14
2022-12-25T02:21:26.136Z,100869.39
2022-12-25T02:23:57.165Z,100868.31
2022-12-25T02:26:18.374Z,100869.20
2022-12-25T02:28:42.083Z,100872.70
2022-12-25T02:31:12.779Z,100870.16
2022-12-25T02:33:54.375Z,100868.35
2022-12-25T02:36:13.736Z,100861.92
2022-12-25T02:38:33.570Z,100858.15
2022-12-25T02:40:53.902Z,100852.55
2022-12-25T02:43:30.780Z,100855.13
2022-12-25T02:46:08.085Z,100855.23
2022-12-25T02:48:42.387Z,100857.33
2022-12-25T02:51:15.474Z,100859.21
2022-12-25T02:53:46.926Z,100856.68
2022-12-25T02:56:18.889Z,100861.27
2022-12-25T02:58:53.928Z,100867.73
2022-12-25T03:01:32.383Z,100873.35
2022-12-25T03:04:05.636Z,100877.26
2022-12-25T03:06:39.337Z,100879.14
2022-12-25T03:08:55.017Z,100884.73
2022-12-25T03:11:28.321Z,100881.89
2022-12-25T03:13:43.512Z,100878.66
2022-12-25T03:16:14.631Z,100874.59
2022-12-25T03:18:30.309Z,100880.44
2022-12-25T03:21:01.006Z,100882.13
2022-12-25T03:23:34.104Z,100884.65
2022-12-25T03:26:21.656Z,100889.60
2022-12-25T03:28:33.757Z,100884.00
2022-12-25T03:31:12.920Z,100885.72
2022-12-25T03:34:10.351Z,100888.67
2022-12-25T03:37:20.462Z,100893.11
2022-12-25T03:40:39.064Z,100893.27
2022-12-25T03:43:18.431Z,100894.22
2022-12-25T03:46:05.632Z,100893.27
2022-12-25T03:48:36.813Z,100893.07
2022-12-25T03:51:13.227Z,100892.73
2022-12-25T03:53:49.086Z,100897.20
2022-12-25T03:56:21.462Z,100897.39
2022-12-25T03:58:51.880Z,100896.95
2022-12-25T04:01:22.951Z,100898.75
2022-12-25T04:03:53.766Z,100898.36
2022-12-25T04:06:24.597Z,100902.04
2022-12-25T04:09:12.124Z,100899.90
2022-12-25T04:11:42.555Z,100903.81
2022-12-25T04:14:32.742Z,100905.00
2022-12-25T04:17:03.387Z,100901.83
2022-12-25T04:19:34.311Z,100907.71
2022-12-25T04:22:04.637Z,100907.74
2022-12-25T04:24:35.581Z,100920.66
2022-12-25T04:27:06.431Z,100918.21
2022-12-25T04:29:37.145Z,100922.94
2022-12-25T04:32:08.117Z,100918.41
2022-12-25T04:34:38.921Z,100928.67
2022-12-25T04:36:50.918Z,100930.43
2022-12-25T04:39:02.601Z,100930.56
2022-12-25T04:41:15.011Z,100927.42
2022-12-25T04:43:27.206Z,100932.11
2022-12-25T04:45:39.107Z,100933.77
2022-12-25T04:47:50.889Z,100941.02
2022-12-25T04:50:02.681Z,100938.26
2022-12-25T04:52:14.366Z,100935.22
2022-12-25T04:54:26.155Z,100932.80
2022-12-25T04:56:43.366Z,100932.66
2022-12-25T04:58:57.521Z,100942.69
2022-12-25T05:01:09.935Z,100946.55
2022-12-25T05:03:21.948Z,100948.92
2022-12-25T05:05:33.608Z,100949.56
2022-12-25T05:07:45.603Z,100945.01
2022-12-25T05:09:57.195Z,100949.81
2022-12-25T05:12:10.115Z,100943.41
2022-12-25T05:14:21.789Z,100943.27
2022-12-25T05:16:33.735Z,100949.98
2022-12-25T05:18:49.300Z,100953.77
2022-12-25T05:21:01.671Z,100952.21
2022-12-25T05:23:13.767Z,100945.55
2022-12-25T05:25:25.754Z,100947.12
2022-12-25T05:27:37.441Z,100949.98
2022-12-25T05:29:49.542Z,100949.16
2022-12-25T05:32:01.739Z,100950.23
2022-12-25T05:34:13.324Z,100958.77
2022-12-25T05:36:25.221Z,100959.16
2022-12-25T05:38:37.415Z,100961.64
2022-12-25T05:40:52.131Z,100973.63
2022-12-25T05:43:03.968Z,100974.91
2022-12-25T05:45:16.166Z,100972.61
2022-12-25T05:47:28.058Z,100978.04
2022-12-25T05:49:39.848Z,100984.66
2022-12-25T05:51:51.336Z,100994.54
2022-12-25T05:54:02.916Z,100999.55
2022-12-25T05:56:14.715Z,101007.44
2022-12-25T05:58:26.806Z,101007.52
2022-12-25T06:00:39.513Z,101010.46
2022-12-25T06:02:51.551Z,101017.52
2022-12-25T06:05:04.939Z,101016.44
2022-12-25T06:07:16.418Z,101021.45
2022-12-25T06:09:28.313Z,101028.79
2022-12-25T06:11:40.834Z,101028.14
2022-12-25T06:13:53.445Z,101030.40
2022-12-25T06:16:11.000Z,101032.66
2022-12-25T06:18:22.842Z,101030.04
2022-12-25T06:20:34.737Z,101030.84
2022-12-25T06:22:46.320Z,101037.35
2022-12-25T06:24:59.441Z,101046.45
2022-12-25T06:27:11.746Z,101046.91
2022-12-25T06:29:23.448Z,101047.77
2022-12-25T06:31:35.784Z,101050.40
2022-12-25T06:33:48.547Z,101055.36
2022-12-25T06:36:06.588Z,101057.48
2022-12-25T06:38:18.474Z,101065.88
2022-12-25T06:40:30.583Z,101067.11
2022-12-25T06:42:42.162Z,101072.66
2022-12-25T06:44:53.946Z,101071.52
2022-12-25T06:47:05.642Z,101070.67
2022-12-25T06:49:17.843Z,101073.71
2022-12-25T06:51:31.875Z,101079.33
2022-12-25T06:53:43.902Z,101078.00
2022-12-25T06:56:03.434Z,101076.95
2022-12-25T06:58:15.438Z,101083.04
2022-12-25T07:00:27.136Z,101083.61
2022-12-25T07:02:41.309Z,101078.42
2022-12-25T07:04:53.740Z,101072.41
2022-12-25T07:07:09.147Z,101073.86
2022-12-25T07:09:21.249Z,101073.91
2022-12-25T07:11:33.043Z,101076.77
2022-12-25T07:13:44.825Z,101079.09
2022-12-25T07:16:02.341Z,101082.31
2022-12-25T07:18:14.043Z,101083.80
2022-12-25T07:20:25.831Z,101081.73
2022-12-25T07:22:37.721Z,101077.29
2022-12-25T07:24:51.867Z,101079.63
2022-12-25T07:27:03.868Z,101080.37
2022-12-25T07:29:15.650Z,101082.30
2022-12-25T07:31:27.229Z,101081.31
2022-12-25T07:33:39.637Z,101079.72
2022-12-25T07:35:51.430Z,101073.05
2022-12-25T07:38:03.321Z,101071.73
2022-12-25T07:40:15.014Z,101072.52
2022-12-25T07:42:26.699Z,101069.77
2022-12-25T07:44:39.717Z,101070.73
2022-12-25T07:46:51.708Z,101077.16
2022-12-25T07:49:03.502Z,101077.15
2022-12-25T07:51:16.432Z,101075.09
2022-12-25T07:53:28.931Z,101071.56
2022-12-25T07:55:41.123Z,101074.14
2022-12-25T07:57:53.424Z,101077.77
2022-12-25T08:00:06.751Z,101084.33
2022-12-25T08:02:29.114Z,101087.13
2022-12-25T08:04:42.217Z,101094.16
2022-12-25T08:06:54.307Z,101095.65
2022-12-25T08:09:11.219Z,101097.56
2022-12-25T08:11:23.725Z,101096.32
2022-12-25T08:13:36.755Z,101091.27
2022-12-25T08:15:49.255Z,101089.21
2022-12-25T08:18:01.243Z,101089.90
2022-12-25T08:20:13.339Z,101098.65
2022-12-25T08:22:25.140Z,101100.51
2022-12-25T08:24:36.916Z,101101.90
2022-12-25T08:26:48.604Z,101102.30
2022-12-25T08:29:00.304Z,101103.48
2022-12-25T08:31:21.157Z,101102.61
2022-12-25T08:33:33.091Z,101111.75
2022-12-25T08:35:45.089Z,101113.23
2022-12-25T08:37:57.771Z,101114.75
2022-12-25T08:40:10.108Z,101113.89
2022-12-25T08:42:21.690Z,101121.84
2022-12-25T08:44:33.475Z,101130.34
2022-12-25T08:46:45.222Z,101135.02
2022-12-25T08:48:57.466Z,101141.29
2022-12-25T08:51:14.821Z,101138.21
2022-12-25T08:53:26.986Z,101144.83
2022-12-25T08:55:39.182Z,101148.25
2022-12-25T08:57:53.362Z,101154.66
2022-12-25T09:00:05.963Z,101159.91
2022-12-25T09:02:19.128Z,101159.45
2022-12-25T09:04:31.053Z,101153.61
2022-12-25T09:06:42.637Z,101150.77
2022-12-25T09:08:54.734Z,101149.65
2022-12-25T09:11:10.210Z,101146.27
2022-12-25T09:13:21.798Z,101143.64
2022-12-25T09:15:33.839Z,101140.05
2022-12-25T09:17:46.007Z,101139.65
2022-12-25T09:19:57.883Z,101145.23
2022-12-25T09:22:09.671Z,101146.32
2022-12-25T09:24:21.665Z,101153.58
2022-12-25T09:26:33.369Z,101153.23
2022-12-25T09:28:51.363Z,101157.13
2022-12-25T09:31:04.772Z,101160.17
2022-12-25T09:33:17.017Z,101162.44
2022-12-25T09:35:29.023Z,101162.36
2022-12-25T09:37:40.908Z,101163.60
2022-12-25T09:39:52.699Z,101163.41
2022-12-25T09:42:22.113Z,101168.39
2022-12-25T09:44:40.255Z,101171.36
2022-12-25T09:47:06.781Z,101169.02
2022-12-25T09:49:40.180Z,101168.84
2022-12-25T09:52:03.320Z,101175.74
2022-12-25T09:54:24.943Z,101172.19
2022-12-25T09:56:37.861Z,101171.91
2022-12-25T09:58:49.550Z,101169.84
2022-12-25T10:01:04.739Z,101167.11
2022-12-25T10:03:37.866Z,101161.52
2022-12-25T10:06:16.744Z,101162.98
2022-12-25T10:08:41.221Z,101162.15
2022-12-25T10:11:05.197Z,101160.34
2022-12-25T10:13:38.465Z,101157.70
2022-12-25T10:16:05.404Z,101155.65
2022-12-25T10:18:37.911Z,101151.00
2022-12-25T10:20:57.927Z,101143.59
2022-12-25T10:23:19.191Z,101144.80
2022-12-25T10:25:32.326Z,101148.11
2022-12-25T10:27:44.354Z,101147.94
2022-12-25T10:29:56.315Z,101140.19
2022-12-25T10:32:10.384Z,101135.26
2022-12-25T10:34:23.600Z,101129.16
2022-12-25T10:36:35.628Z,101133.95
2022-12-25T10:38:48.080Z,101139.56
2022-12-25T10:41:21.992Z,101140.71
2022-12-25T10:43:43.926Z,101141.25
2022-12-25T10:45:55.605Z,101129.13
2022-12-25T10:48:08.191Z,101126.45
2022-12-25T10:50:25.465Z,101122.68
2022-12-25T10:52:51.460Z,101121.70
2022-12-25T10:55:13.722Z,101124.47
2022-12-25T10:57:29.263Z,101118.05
2022-12-25T10:59:45.958Z,101116.27
2022-12-25T11:02:13.358Z,101112.80
2022-12-25T11:04:28.804Z,101113.82
2022-12-25T11:06:40.768Z,101115.77
2022-12-25T11:08:56.805Z,101118.94
2022-12-25T11:11:19.851Z,101122.59
2022-12-25T11:13:39.623Z,101126.83
2022-12-25T11:16:25.355Z,101128.05
2022-12-25T11:18:52.466Z,101130.88
2022-12-25T11:21:17.872Z,101127.91
2022-12-25T11:23:32.017Z,101129.45
2022-12-25T11:25:43.593Z,101132.39
2022-12-25T11:28:06.752Z,101130.65
2022-12-25T11:30:19.868Z,101134.29
2022-12-25T11:32:43.638Z,101132.52
2022-12-25T11:34:56.057Z,101130.20
2022-12-25T11:37:15.788Z,101133.91
2022-12-25T11:39:31.826Z,101137.11
2022-12-25T11:41:44.523Z,101137.80
2022-12-25T11:44:00.076Z,101136.92
2022-12-25T11:46:20.218Z,101136.81
2022-12-25T11:48:41.192Z,101135.80
2022-12-25T11:50:57.750Z,101132.29
2022-12-25T11:53:41.434Z,101127.89
2022-12-25T11:55:59.982Z,101128.13
2022-12-25T11:58:30.413Z,101123.05
2022-12-25T12:00:45.253Z,101120.36
2022-12-25T12:03:06.604Z,101121.96
2022-12-25T12:05:46.735Z,101118.67
2022-12-25T12:08:01.602Z,101116.70
2022-12-25T12:10:24.667Z,101118.91
2022-12-25T12:12:53.333Z,101117.73
2022-12-25T12:15:29.318Z,101114.67
2022-12-25T12:17:41.188Z,101110.44
2022-12-25T12:19:52.916Z,101107.33
2022-12-25T12:22:05.277Z,101099.31
2022-12-25T12:24:21.162Z,101098.00
2022-12-25T12:26:38.211Z,101103.05
2022-12-25T12:28:52.947Z,101106.55
2022-12-25T12:31:07.855Z,101108.64
2022-12-25T12:33:21.389Z,101105.96
2022-12-25T12:35:38.858Z,101100.63
2022-12-25T12:37:55.967Z,101106.55
2022-12-25T12:40:33.460Z,101103.13
2022-12-25T12:42:50.664Z,101099.08
2022-12-25T12:45:18.639Z,101100.11
2022-12-25T12:47:49.188Z,101101.61
2022-12-25T12:50:01.822Z,101103.16
2022-12-25T12:52:24.718Z,101102.64
2022-12-25T12:54:58.522Z,101098.04
2022-12-25T12:57:27.047Z,101097.38
2022-12-25T12:59:44.544Z,101087.74
2022-12-25T13:02:04.618Z,101082.50
2022-12-25T13:04:23.082Z,101075.59
2022-12-25T13:06:44.091Z,101069.67
2022-12-25T13:09:50.263Z,101061.23
2022-12-25T13:12:07.366Z,101062.56
2022-12-25T13:14:22.884Z,101070.76
2022-12-25T13:16:39.865Z,101071.34
2022-12-25T13:18:55.964Z,101070.98
2022-12-25T13:21:18.080Z,101069.70
2022-12-25T13:23:32.853Z,101075.65
2022-12-25T13:25:52.865Z,101075.06
2022-12-25T13:28:05.121Z,101075.94
2022-12-25T13:30:21.233Z,101073.34
2022-12-25T13:32:37.031Z,101072.40
2022-12-25T13:34:54.003Z,101073.91
2022-12-25T13:37:15.215Z,101076.08
2022-12-25T13:39:30.908Z,101071.56
2022-12-25T13:42:04.802Z,101078.15
2022-12-25T13:44:21.442Z,101075.04
2022-12-25T13:46:33.200Z,101074.62
2022-12-25T13:48:44.888Z,101074.06
2022-12-25T13:50:58.165Z,101076.46
2022-12-25T13:53:12.864Z,101070.73
2022-12-25T13:55:29.572Z,101066.34
2022-12-25T13:57:56.484Z,101063.16
2022-12-25T14:00:30.330Z,101050.44
2022-12-25T14:02:42.452Z,101045.98
2022-12-25T14:04:55.037Z,101043.29
2022-12-25T14:07:11.876Z,101042.55
2022-12-25T14:09:24.038Z,101038.79
2022-12-25T14:11:36.446Z,101038.45
2022-12-25T14:13:51.008Z,101041.70
2022-12-25T14:16:03.093Z,101038.17
2022-12-25T14:18:16.930Z,101049.09
2022-12-25T14:20:34.771Z,101046.67
2022-12-25T14:22:54.292Z,101049.77
2022-12-25T14:25:15.063Z,101051.33
2022-12-25T14:27:30.538Z,101058.84
2022-12-25T14:29:45.775Z,101065.77
2022-12-25T14:32:00.605Z,101068.04
2022-12-25T14:34:24.159Z,101072.63
2022-12-25T14:36:36.408Z,101072.04
2022-12-25T14:38:59.583Z,101074.23
2022-12-25T14:41:33.878Z,101080.41
2022-12-25T14:43:55.743Z,101076.31
2022-12-25T14:46:08.203Z,101073.59
2022-12-25T14:48:26.046Z,101075.85
2022-12-25T14:50:44.908Z,101072.51
2022-12-25T14:52:57.417Z,101078.20
2022-12-25T14:55:19.951Z,101082.16
2022-12-25T14:57:37.623Z,101075.45
2022-12-25T14:59:59.207Z,101067.31
2022-12-25T15:02:19.528Z,101062.19
2022-12-25T15:04:31.702Z,101051.38
2022-12-25T15:07:02.089Z,101051.26
2022-12-25T15:09:19.252Z,101059.92
2022-12-25T15:11:31.326Z,101057.76
2022-12-25T15:13:43.533Z,101053.88
2022-12-25T15:16:04.365Z,101047.91
2022-12-25T15:18:17.041Z,101044.39
2022-12-25T15:20:32.928Z,101043.55
2022-12-25T15:23:17.879Z,101034.64
2022-12-25T15:25:16.996Z,101028.09
2022-12-25T15:27:29.911Z,101021.48
2022-12-25T15:32:18.434Z,101018.77
2022-12-25T15:34:31.704Z,101035.05
2022-12-25T15:36:45.221Z,101052.16
2022-12-25T15:38:57.321Z,101049.22
2022-12-25T15:41:36.487Z,101041.70
2022-12-25T15:43:48.750Z,101039.77
2022-12-25T15:46:01.187Z,101043.71
2022-12-25T15:48:12.851Z,101043.52
2022-12-25T15:50:25.245Z,101038.35
2022-12-25T15:52:36.937Z,101038.56
2022-12-25T15:54:49.036Z,101054.55
2022-12-25T15:57:04.520Z,101066.88
2022-12-25T15:59:19.178Z,101055.67
2022-12-25T16:01:31.104Z,101046.32
2022-12-25T16:03:43.884Z,101041.73
2022-12-25T16:05:56.401Z,101023.63
2022-12-25T16:08:09.400Z,101025.19
2022-12-25T16:10:22.840Z,101026.70
2022-12-25T16:12:34.816Z,101033.02
2022-12-25T16:14:46.711Z,101024.17
2022-12-25T16:16:58.602Z,101022.52
2022-12-25T16:19:10.604Z,101035.75
2022-12-25T16:21:23.409Z,101036.19
2022-12-25T16:23:35.307Z,101028.05
2022-12-25T16:25:47.858Z,101022.48
2022-12-25T16:27:59.910Z,101024.61
2022-12-25T16:30:15.188Z,101032.30
2022-12-25T16:32:27.172Z,101033.23
2022-12-25T16:34:40.670Z,101019.65
2022-12-25T16:36:55.977Z,101013.98
2022-12-25T16:39:08.496Z,101025.95
2022-12-25T16:41:20.688Z,101027.80
2022-12-25T16:43:32.989Z,101023.42
2022-12-25T16:45:44.673Z,101011.31
2022-12-25T16:47:57.792Z,101003.10
2022-12-25T16:50:10.044Z,101000.83
2022-12-25T16:52:22.112Z,100997.89
2022-12-25T16:54:34.289Z,100997.35
2022-12-25T16:56:46.085Z,101000.48
2022-12-25T16:58:59.323Z,101002.67
2022-12-25T17:01:12.629Z,100992.98
2022-12-25T17:03:28.886Z,100984.03
2022-12-25T17:05:44.955Z,100965.54
2022-12-25T17:08:01.257Z,100965.47
2022-12-25T17:10:18.512Z,100967.53
2022-12-25T17:12:35.710Z,100970.80
2022-12-25T17:14:54.210Z,100968.69
2022-12-25T17:17:08.673Z,100961.85
2022-12-25T17:19:24.015Z,100956.27
2022-12-25T17:21:39.840Z,100963.90
2022-12-25T17:23:56.540Z,100965.17
2022-12-25T17:26:42.135Z,100949.76
2022-12-25T17:28:56.381Z,100947.92
2022-12-25T17:31:12.735Z,100943.94
2022-12-25T17:33:28.201Z,100930.44
2022-12-25T17:35:44.330Z,100923.98
2022-12-25T17:38:00.957Z,100919.77
2022-12-25T17:40:20.170Z,100923.79
2022-12-25T17:42:41.689Z,100937.84
2022-12-25T17:45:00.287Z,100943.67
2022-12-25T17:47:17.605Z,100930.59
2022-12-25T17:49:31.801Z,100921.02
2022-12-25T17:51:47.429Z,100925.17
2022-12-25T17:54:06.327Z,100922.78
2022-12-25T17:56:26.679Z,100921.87
2022-12-25T17:58:41.282Z,100916.06
2022-12-25T18:00:58.418Z,100916.47
2022-12-25T18:03:13.684Z,100914.10
2022-12-25T18:07:10.573Z,100907.75
2022-12-25T18:17:35.153Z,100884.19
2022-12-25T18:26:43.217Z,100894.47
2022-12-25T18:29:22.466Z,100885.19
2022-12-25T18:31:36.318Z,100875.66
2022-12-25T18:33:56.505Z,100867.18
2022-12-25T18:36:14.483Z,100865.67
2022-12-25T18:38:30.664Z,100862.27
2022-12-25T18:40:48.767Z,100862.86
2022-12-25T18:43:03.622Z,100857.36
2022-12-25T18:45:16.335Z,100851.05
2022-12-25T18:47:36.627Z,100848.52
2022-12-25T18:49:53.314Z,100847.44
2022-12-25T18:52:50.027Z,100847.17
2022-12-25T18:54:49.253Z,100834.27
2022-12-25T18:57:07.154Z,100829.41
2022-12-25T18:59:22.570Z,100826.71
2022-12-25T19:01:50.506Z,100820.16
2022-12-25T19:04:06.526Z,100816.42
2022-12-25T19:06:25.380Z,100809.02
2022-12-25T19:08:37.564Z,100809.23
2022-12-25T19:10:50.796Z,100808.14
2022-12-25T19:13:02.789Z,100805.71
2022-12-25T19:15:14.985Z,100800.04
2022-12-25T19:17:31.968Z,100795.20
2022-12-25T19:19:45.223Z,100792.96
2022-12-25T19:21:58.095Z,100788.62
2022-12-25T19:24:09.930Z,100782.81
2022-12-25T19:26:22.844Z,100779.02
2022-12-25T19:28:37.091Z,100776.08
2022-12-25T19:30:49.695Z,100773.20
2022-12-25T19:33:01.942Z,100768.80
2022-12-25T19:35:13.649Z,100762.71
2022-12-25T19:37:25.685Z,100763.77
2022-12-25T19:39:37.677Z,100754.34
2022-12-25T19:41:49.682Z,100745.25
2022-12-25T19:44:01.985Z,100734.44
2022-12-25T19:46:20.484Z,100724.20
2022-12-25T19:48:32.927Z,100723.01
2022-12-25T19:50:44.923Z,100720.80
2022-12-25T19:52:56.624Z,100713.70
2022-12-25T19:55:08.732Z,100704.55
2022-12-25T19:57:20.599Z,100707.09
2022-12-25T19:59:32.286Z,100711.88
2022-12-25T20:01:44.423Z,100712.52
2022-12-25T20:03:57.003Z,100714.38
2022-12-25T20:06:08.788Z,100715.41
2022-12-25T20:08:21.085Z,100713.52
2022-12-25T20:10:33.177Z,100714.89
2022-12-25T20:12:45.380Z,100713.39
2022-12-25T20:14:57.001Z,100708.45
2022-12-25T20:17:15.383Z,100700.89
2022-12-25T20:19:28.226Z,100693.58
2022-12-25T20:21:40.423Z,100688.83
2022-12-25T20:23:54.161Z,100684.51
2022-12-25T20:26:06.052Z,100676.17
2022-12-25T20:28:17.945Z,100672.55
2022-12-25T20:30:29.770Z,100669.17
2022-12-25T20:32:48.088Z,100659.92
2022-12-25T20:35:02.144Z,100652.79
2022-12-25T20:37:13.888Z,100647.90
2022-12-25T20:39:25.705Z,100648.27
2022-12-25T20:41:38.216Z,100647.89
2022-12-25T20:43:51.151Z,100644.75
2022-12-25T20:46:04.833Z,100638.60
2022-12-25T20:48:16.562Z,100641.36
2022-12-25T20:50:28.749Z,100642.66
2022-12-25T20:52:40.541Z,100646.78
2022-12-25T20:54:54.992Z,100653.57
2022-12-25T20:57:06.832Z,100660.63
2022-12-25T20:59:19.899Z,100666.70
2022-12-25T21:01:32.154Z,100666.91
2022-12-25T21:03:44.760Z,100670.33
2022-12-25T21:05:56.705Z,100659.71
2022-12-25T21:08:09.110Z,100660.13
2022-12-25T21:10:20.897Z,100662.45
2022-12-25T21:12:32.693Z,100659.55
2022-12-25T21:14:44.997Z,100660.42
2022-12-25T21:16:58.858Z,100654.18
2022-12-25T21:19:12.103Z,100652.33
2022-12-25T21:21:24.571Z,100651.91
2022-12-25T21:23:42.325Z,100647.89
2022-12-25T21:25:55.713Z,100642.86
2022-12-25T21:28:08.834Z,100646.63
2022-12-25T21:30:20.625Z,100645.29
2022-12-25T21:32:51.467Z,100643.10
2022-12-25T21:35:03.764Z,100639.14
2022-12-25T21:37:15.354Z,100641.18
2022-12-25T21:39:29.549Z,100642.95
2022-12-25T21:41:45.976Z,100643.25
2022-12-25T21:44:02.851Z,100642.70
2022-12-25T21:46:19.984Z,100638.91
2022-12-25T21:48:39.238Z,100634.92
2022-12-25T21:51:13.984Z,100621.80
2022-12-25T21:53:29.521Z,100620.45
2022-12-25T21:56:03.635Z,100622.26
2022-12-25T21:58:17.441Z,100616.39
2022-12-25T22:00:30.979Z,100611.05
2022-12-25T22:02:46.626Z,100607.80
2022-12-25T22:05:03.997Z,100604.52
2022-12-25T22:07:18.783Z,100599.21
2022-12-25T22:09:32.909Z,100589.05
2022-12-25T22:12:09.350Z,100578.54
2022-12-25T22:14:52.128Z,100562.27
2022-12-25T22:17:28.850Z,100549.80
2022-12-25T22:19:46.235Z,100537.80
2022-12-25T22:22:02.449Z,100530.85
2022-12-25T22:24:16.693Z,100533.02
2022-12-25T22:26:31.037Z,100527.67
2022-12-25T22:28:45.811Z,100529.52
2022-12-25T22:31:05.462Z,100528.80
2022-12-25T22:33:23.475Z,100527.39
2022-12-25T22:35:40.192Z,100522.96
2022-12-25T22:37:56.904Z,100528.60
2022-12-25T22:40:17.242Z,100530.42
2022-12-25T22:42:31.016Z,100519.21
2022-12-25T22:44:42.778Z,100517.64
2022-12-25T22:46:54.943Z,100515.70
2022-12-25T22:49:08.063Z,100517.14
2022-12-25T22:51:20.060Z,100518.73
2022-12-25T22:53:31.952Z,100518.86
2022-12-25T22:55:48.039Z,100512.17
2022-12-25T22:57:59.832Z,100507.41
2022-12-25T23:00:13.461Z,100504.27
2022-12-25T23:02:25.352Z,100497.09
2022-12-25T23:04:37.898Z,100498.30
2022-12-25T23:06:50.369Z,100506.33
2022-12-25T23:09:02.261Z,100505.68
2022-12-25T23:11:15.590Z,100509.53
2022-12-25T23:13:46.262Z,100508.86
2022-12-25T23:15:58.370Z,100503.61
2022-12-25T23:18:29.562Z,100501.92
2022-12-25T23:21:00.505Z,100491.06
2022-12-25T23:23:34.208Z,100492.01
2022-12-25T23:26:04.951Z,100480.91
2022-12-25T23:28:40.089Z,100467.21
2022-12-25T23:30:52.203Z,100481.20
2022-12-25T23:33:04.371Z,100477.96
2022-12-25T23:35:16.178Z,100477.46
2022-12-25T23:37:27.957Z,100458.04
2022-12-25T23:39:43.436Z,100447.58
2022-12-25T23:41:55.829Z,100450.52
2022-12-25T23:44:09.990Z,100441.09
2022-12-25T23:46:21.802Z,100428.41
2022-12-25T23:48:33.655Z,100423.77
2022-12-25T23:50:45.763Z,100424.58
2022-12-25T23:52:57.851Z,100412.49
2022-12-25T23:55:09.949Z,100412.17
2022-12-25T23:57:21.841Z,100403.14
2022-12-25T23:59:34.040Z,100398.34
